Takaya — VG2773 — position and weather

sailwx.info

Track history (hours):
 
Tides and Currents Weather Stations Pressure Air Temp Water Temp Dewpoint Dewpoint Depression Visibility Wind Speed Wind Dir Waves Ship Positions

Takaya

Last reported at 2016-Jul-25 17:33 UTC. Time now 2016-Jul-25 17:51 UTC.
Position N 49°17' W 123°06'.

; draft 1.4 m.

Type: Port tender. MMSI: 316014014.

Date/timePositionNaut miles runAvg speedWind from/ knotsBaromVisibWave heightAir tempDewpointWater temp
2016-Jul-25 17:33N 49°17' W 123°06'0 0.0
2016-Jul-25 16:33N 49°17' W 123°06'0 0.0
2016-Jul-25 15:33N 49°17' W 123°06'0 0.0
2016-Jul-25 14:33N 49°17' W 123°06'0 0.0
2016-Jul-25 13:33N 49°17' W 123°06'0 0.0
2016-Jul-25 12:33N 49°17' W 123°06'0 0.0
2016-Jul-25 11:32N 49°17' W 123°06'0 0.0
2016-Jul-25 10:33N 49°17' W 123°06'0 0.0
2016-Jul-25 09:33N 49°17' W 123°06'0 0.0
2016-Jul-25 08:33N 49°17' W 123°06'0 0.0
2016-Jul-25 07:33N 49°17' W 123°06'0 0.0
2016-Jul-25 06:33N 49°17' W 123°06'0 0.0
2016-Jul-25 05:29N 49°17' W 123°06'0 0.0
2016-Jul-25 04:33N 49°17' W 123°06'0 0.0
2016-Jul-25 03:33N 49°17' W 123°06'0 0.0
2016-Jul-25 02:33N 49°17' W 123°06'0 0.0
2016-Jul-25 01:33N 49°17' W 123°06'0 0.0
2016-Jul-25 00:26N 49°17' W 123°06'0 0.0
2016-Jul-24 23:33N 49°17' W 123°06'0 0.0
2016-Jul-24 21:34N 49°17' W 123°06'0 0.0
2016-Jul-24 20:23N 49°17' W 123°06'0 0.0
2016-Jul-24 19:31N 49°17' W 123°06'0 0.0
2016-Jul-24 18:33N 49°17' W 123°06'0 0.0
2016-Jul-24 17:33N 49°17' W 123°06'0 0.0
2016-Jul-24 16:33N 49°17' W 123°06'0 0.0
2016-Jul-24 15:33N 49°17' W 123°06'0 0.0
2016-Jul-24 14:33N 49°17' W 123°06'0 0.0
2016-Jul-24 13:33N 49°17' W 123°06'0 0.0
2016-Jul-24 12:33N 49°17' W 123°06'0 0.0
2016-Jul-24 11:33N 49°17' W 123°06'0 0.0
2016-Jul-24 10:33N 49°17' W 123°06'0 0.0
2016-Jul-24 09:33N 49°17' W 123°06'0 0.0
2016-Jul-24 08:32N 49°17' W 123°06'0 0.0
2016-Jul-24 07:33N 49°17' W 123°06'3 2.7
2016-Jul-24 06:33N 49°19' W 123°09'0 0.1
2016-Jul-24 05:34N 49°19' W 123°09'2 1.7
2016-Jul-24 04:34N 49°18' W 123°06'1 0.6
2016-Jul-24 03:34N 49°18' W 123°07'1 0.7
2016-Jul-24 02:34N 49°19' W 123°08'2 2.2
2016-Jul-24 01:33N 49°17' W 123°06'0 0.0
2016-Jul-24 00:33N 49°17' W 123°06'0 0.0
2016-Jul-23 23:33N 49°17' W 123°06'0 0.0
2016-Jul-23 22:07N 49°17' W 123°06'0 0.1
2016-Jul-23 21:33N 49°17' W 123°06'0 0.0
2016-Jul-23 20:24N 49°17' W 123°06'0 0.0
2016-Jul-23 19:33N 49°17' W 123°06'0 0.0
2016-Jul-23 18:34N 49°17' W 123°06'0 0.0
2016-Jul-23 17:33N 49°17' W 123°06'0 0.0
2016-Jul-23 16:33N 49°17' W 123°06'0 0.0
2016-Jul-23 15:32N 49°17' W 123°06'0 0.0
2016-Jul-23 14:33N 49°17' W 123°06'0 0.0
2016-Jul-23 13:33N 49°17' W 123°06'0 0.0
2016-Jul-23 12:33N 49°17' W 123°06'0 0.0
2016-Jul-23 11:33N 49°17' W 123°06'0 0.0
2016-Jul-23 10:33N 49°17' W 123°06'0 0.0
2016-Jul-23 09:33N 49°17' W 123°06'0 0.0
2016-Jul-23 08:33N 49°17' W 123°06'0 0.0
2016-Jul-23 07:33N 49°17' W 123°06'0 0.0
2016-Jul-23 06:34N 49°17' W 123°06'0 0.0
2016-Jul-23 04:32N 49°17' W 123°06'0 0.0
2016-Jul-23 03:32N 49°17' W 123°06'0 0.0
2016-Jul-23 02:33N 49°17' W 123°06'0 0.0
2016-Jul-23 01:30N 49°17' W 123°06'0 0.0
2016-Jul-23 00:32N 49°17' W 123°06'0 0.0
2016-Jul-22 23:33N 49°17' W 123°06'0 0.0
2016-Jul-22 22:30N 49°17' W 123°06'0 0.0
2016-Jul-22 21:33N 49°17' W 123°06'0 0.0
2016-Jul-22 20:33N 49°17' W 123°06'0 0.0
2016-Jul-22 19:33N 49°17' W 123°06'0 0.0
2016-Jul-22 18:33N 49°17' W 123°06'0 0.0
2016-Jul-22 17:32N 49°17' W 123°06'0 0.0
2016-Jul-22 16:33N 49°17' W 123°06'0 0.0
2016-Jul-22 15:31N 49°17' W 123°06'0 0.0
2016-Jul-22 14:33N 49°17' W 123°06'0 0.0
2016-Jul-22 13:33N 49°17' W 123°06'0 0.0
2016-Jul-22 12:33N 49°17' W 123°06'0 0.0
2016-Jul-22 11:26N 49°17' W 123°06'0 0.0
2016-Jul-22 10:33N 49°17' W 123°06'0 0.0
2016-Jul-22 09:30N 49°17' W 123°06'0 0.0
2016-Jul-22 08:33N 49°17' W 123°06'0 0.0
2016-Jul-22 07:33N 49°17' W 123°06'0 0.0
2016-Jul-22 05:33N 49°17' W 123°06'0 0.0
2016-Jul-22 04:31N 49°17' W 123°06'0 0.0
2016-Jul-22 03:33N 49°17' W 123°06'0 0.0
2016-Jul-22 02:34N 49°17' W 123°06'0 0.0
2016-Jul-22 01:33N 49°17' W 123°06'0 0.0
2016-Jul-22 00:10N 49°17' W 123°06'0 0.1
2016-Jul-21 23:33N 49°17' W 123°06'0 0.0
2016-Jul-21 22:33N 49°17' W 123°06'0 0.0
2016-Jul-21 21:33N 49°17' W 123°06'0 0.1
2016-Jul-21 20:33N 49°17' W 123°06'0 0.1
2016-Jul-21 19:33N 49°17' W 123°06'0 0.1
2016-Jul-21 15:33N 49°17' W 123°06'0 0.0
2016-Jul-21 03:32N 49°17' W 123°06'0 0.0
2016-Jul-21 02:34N 49°17' W 123°06'0 0.0
2016-Jul-21 01:30N 49°17' W 123°06'0 0.0
2016-Jul-21 00:32N 49°17' W 123°06'0 0.0
2016-Jul-20 23:33N 49°17' W 123°06'0 0.0
2016-Jul-20 22:29N 49°17' W 123°06'0 0.0
2016-Jul-20 21:33N 49°17' W 123°06'0 0.0
2016-Jul-20 20:33N 49°17' W 123°06'0 0.4
2016-Jul-20 19:34N 49°17' W 123°07'0 0.0
2016-Jul-20 18:34N 49°17' W 123°07'0 0.4
2016-Jul-20 17:34N 49°17' W 123°06'0 0.0
2016-Jul-20 16:33N 49°17' W 123°06'0 0.0
2016-Jul-20 15:32N 49°17' W 123°06'0 0.0
2016-Jul-20 14:34N 49°17' W 123°06'0 0.0
2016-Jul-20 13:33N 49°17' W 123°06'0 0.0
2016-Jul-20 12:32N 49°17' W 123°06'0 0.0
2016-Jul-20 11:34N 49°17' W 123°06'0 0.0
2016-Jul-20 10:33N 49°17' W 123°06'0 0.0
2016-Jul-20 09:31N 49°17' W 123°06'0 0.0
2016-Jul-20 08:34N 49°17' W 123°06'0 0.0
2016-Jul-20 07:33N 49°17' W 123°06'0 0.0
2016-Jul-20 06:34N 49°17' W 123°06'0 0.0
2016-Jul-20 05:34N 49°17' W 123°06'0 0.0
2016-Jul-20 04:30N 49°17' W 123°06'0 0.0
2016-Jul-20 03:34N 49°17' W 123°06'0 0.0
2016-Jul-20 02:34N 49°17' W 123°06'0 0.0
2016-Jul-20 01:33N 49°17' W 123°06'0 0.0
2016-Jul-20 00:14N 49°17' W 123°06'0 0.0
2016-Jul-19 23:34N 49°17' W 123°06'0 0.0
2016-Jul-19 22:32N 49°17' W 123°06'0 0.4
2016-Jul-19 21:34N 49°17' W 123°07'6 5.8
2016-Jul-19 20:34N 49°18' W 122°58'5 5.4
2016-Jul-19 19:33N 49°17' W 123°06'2 1.9
2016-Jul-19 18:33N 49°18' W 123°04'2 1.8
2016-Jul-19 17:33N 49°17' W 123°06'0 0.3
2016-Jul-19 16:32N 49°17' W 123°06'0 0.0
2016-Jul-19 15:33N 49°17' W 123°06'0 0.0
2016-Jul-19 14:33N 49°17' W 123°06'0 0.0
2016-Jul-19 13:33N 49°17' W 123°06'0 0.0
2016-Jul-19 12:30N 49°17' W 123°06'0 0.0
2016-Jul-19 11:33N 49°17' W 123°06'0 0.0
2016-Jul-19 10:33N 49°17' W 123°06'0 0.0
2016-Jul-19 09:31N 49°17' W 123°06'0 0.0
2016-Jul-19 08:32N 49°17' W 123°06'0 0.0
2016-Jul-19 07:33N 49°17' W 123°06'0 0.0
2016-Jul-19 04:33N 49°17' W 123°06'0 0.0
2016-Jul-19 03:33N 49°17' W 123°06'0 0.0
2016-Jul-19 02:33N 49°17' W 123°06'0 0.0
2016-Jul-19 01:33N 49°17' W 123°06'0 0.0
2016-Jul-19 00:23N 49°17' W 123°06'0 0.0
2016-Jul-18 23:33N 49°17' W 123°06'0 0.0
2016-Jul-18 22:33N 49°17' W 123°06'0 0.0
2016-Jul-18 21:33N 49°17' W 123°06'0 0.0
2016-Jul-18 20:32N 49°17' W 123°06'0 0.0
2016-Jul-18 19:33N 49°17' W 123°06'0 0.0
2016-Jul-18 18:33N 49°17' W 123°06'0 0.0
2016-Jul-18 17:33N 49°17' W 123°06'0 0.0
2016-Jul-18 16:31N 49°17' W 123°06'0 0.0
2016-Jul-18 15:33N 49°17' W 123°06'0 0.0
2016-Jul-18 14:33N 49°17' W 123°06'0 0.0
2016-Jul-18 13:33N 49°17' W 123°06'0 0.0
2016-Jul-18 12:33N 49°17' W 123°06'0 0.0
2016-Jul-18 11:33N 49°17' W 123°06'0 0.0
2016-Jul-18 10:33N 49°17' W 123°06'0 0.0
2016-Jul-18 09:33N 49°17' W 123°06'0 0.0
2016-Jul-18 08:33N 49°17' W 123°06'0 0.0
2016-Jul-18 07:33N 49°17' W 123°06'0 0.0
2016-Jul-18 06:33N 49°17' W 123°06'0 0.0
2016-Jul-18 05:33N 49°17' W 123°06'0 0.0
2016-Jul-18 04:31N 49°17' W 123°06'0 0.0
2016-Jul-18 03:33N 49°17' W 123°06'0 0.0
2016-Jul-18 02:33N 49°17' W 123°06'0 0.0
2016-Jul-18 01:33N 49°17' W 123°06'0 0.0
2016-Jul-18 00:32N 49°17' W 123°06'0 0.0
2016-Jul-17 23:33N 49°17' W 123°06'0 0.0
2016-Jul-17 22:32N 49°17' W 123°06'0 0.0
2016-Jul-17 21:33N 49°17' W 123°06'0 0.0
2016-Jul-17 20:31N 49°17' W 123°06'0 0.0
2016-Jul-17 19:31N 49°17' W 123°06'0 0.0
2016-Jul-17 18:33N 49°17' W 123°06'0 0.0
2016-Jul-17 17:33N 49°17' W 123°06'0 0.0
2016-Jul-17 16:32N 49°17' W 123°06'0 0.0
2016-Jul-17 15:33N 49°17' W 123°06'0 0.0
2016-Jul-17 14:33N 49°17' W 123°06'0 0.0
2016-Jul-17 13:32N 49°17' W 123°06'0 0.0
2016-Jul-17 12:31N 49°17' W 123°06'0 0.0
2016-Jul-17 11:33N 49°17' W 123°06'0 0.0
2016-Jul-17 10:33N 49°17' W 123°06'0 0.0
2016-Jul-17 09:33N 49°17' W 123°06'0 0.0
2016-Jul-17 08:33N 49°17' W 123°06'0 0.0
2016-Jul-17 07:33N 49°17' W 123°06'0 0.0
2016-Jul-17 06:33N 49°17' W 123°06'0 0.0
2016-Jul-17 04:33N 49°17' W 123°06'0 0.0
2016-Jul-17 03:33N 49°17' W 123°06'0 0.0
2016-Jul-17 02:33N 49°17' W 123°06'0 0.0
2016-Jul-17 01:32N 49°17' W 123°06'0 0.0
2016-Jul-17 00:30N 49°17' W 123°06'0 0.0
2016-Jul-16 23:33N 49°17' W 123°06'0 0.0
2016-Jul-16 22:33N 49°17' W 123°06'0 0.0
2016-Jul-16 21:18N 49°17' W 123°06'0 0.0
2016-Jul-16 20:33N 49°17' W 123°06'0 0.0
2016-Jul-16 19:33N 49°17' W 123°06'0 0.0
2016-Jul-16 18:33N 49°17' W 123°06'0 0.0
2016-Jul-16 17:33N 49°17' W 123°06'0 0.0
2016-Jul-16 16:33N 49°17' W 123°06'0 0.0
2016-Jul-16 15:33N 49°17' W 123°06'0 0.0
2016-Jul-16 14:33N 49°17' W 123°06'0 0.0
2016-Jul-16 13:32N 49°17' W 123°06'0 0.0
2016-Jul-16 12:27N 49°17' W 123°06'0 0.0
2016-Jul-16 11:33N 49°17' W 123°06'0 0.0
2016-Jul-16 10:33N 49°17' W 123°06'0 0.0
2016-Jul-16 09:29N 49°17' W 123°06'0 0.0
2016-Jul-16 08:33N 49°17' W 123°06'0 0.0
2016-Jul-16 07:33N 49°17' W 123°06'0 0.0
2016-Jul-16 06:33N 49°17' W 123°06'0 0.0
2016-Jul-16 04:33N 49°17' W 123°06'0 0.0
2016-Jul-16 03:33N 49°17' W 123°06'0 0.0
2016-Jul-16 02:33N 49°17' W 123°06'0 0.0
2016-Jul-16 01:32N 49°17' W 123°06'0 0.0
2016-Jul-16 00:29N 49°17' W 123°06'0 0.0
2016-Jul-15 23:33N 49°17' W 123°06'0 0.0
2016-Jul-15 22:33N 49°17' W 123°06'0 0.0
2016-Jul-15 21:30N 49°17' W 123°06'0 0.0
2016-Jul-15 20:32N 49°17' W 123°06'0 0.0
2016-Jul-15 19:33N 49°17' W 123°06'0 0.0
2016-Jul-15 18:33N 49°17' W 123°06'  
Track history (hours):
 
Tides and Currents Weather Stations Pressure Air Temp Water Temp Dewpoint Dewpoint Depression Visibility Wind Speed Wind Dir Waves Ship Positions

Takaya

Last reported at 2016-Jul-25 17:33 UTC. Time now 2016-Jul-25 17:51 UTC.
Position N 49°17' W 123°06'.

; draft 1.4 m.

Type: Port tender. MMSI: 316014014.

Date/timePositionNaut miles runAvg speedWind from/ knotsBaromVisibWave heightAir tempDewpointWater temp
2016-Jul-25 17:33N 49°17' W 123°06'0 0.0
2016-Jul-25 16:33N 49°17' W 123°06'0 0.0
2016-Jul-25 15:33N 49°17' W 123°06'0 0.0
2016-Jul-25 14:33N 49°17' W 123°06'0 0.0
2016-Jul-25 13:33N 49°17' W 123°06'0 0.0
2016-Jul-25 12:33N 49°17' W 123°06'0 0.0
2016-Jul-25 11:32N 49°17' W 123°06'0 0.0
2016-Jul-25 10:33N 49°17' W 123°06'0 0.0
2016-Jul-25 09:33N 49°17' W 123°06'0 0.0
2016-Jul-25 08:33N 49°17' W 123°06'0 0.0
2016-Jul-25 07:33N 49°17' W 123°06'0 0.0
2016-Jul-25 06:33N 49°17' W 123°06'0 0.0
2016-Jul-25 05:29N 49°17' W 123°06'0 0.0
2016-Jul-25 04:33N 49°17' W 123°06'0 0.0
2016-Jul-25 03:33N 49°17' W 123°06'0 0.0
2016-Jul-25 02:33N 49°17' W 123°06'0 0.0
2016-Jul-25 01:33N 49°17' W 123°06'0 0.0
2016-Jul-25 00:26N 49°17' W 123°06'0 0.0
2016-Jul-24 23:33N 49°17' W 123°06'0 0.0
2016-Jul-24 21:34N 49°17' W 123°06'0 0.0
2016-Jul-24 20:23N 49°17' W 123°06'0 0.0
2016-Jul-24 19:31N 49°17' W 123°06'0 0.0
2016-Jul-24 18:33N 49°17' W 123°06'0 0.0
2016-Jul-24 17:33N 49°17' W 123°06'0 0.0
2016-Jul-24 16:33N 49°17' W 123°06'0 0.0
2016-Jul-24 15:33N 49°17' W 123°06'0 0.0
2016-Jul-24 14:33N 49°17' W 123°06'0 0.0
2016-Jul-24 13:33N 49°17' W 123°06'0 0.0
2016-Jul-24 12:33N 49°17' W 123°06'0 0.0
2016-Jul-24 11:33N 49°17' W 123°06'0 0.0
2016-Jul-24 10:33N 49°17' W 123°06'0 0.0
2016-Jul-24 09:33N 49°17' W 123°06'0 0.0
2016-Jul-24 08:32N 49°17' W 123°06'0 0.0
2016-Jul-24 07:33N 49°17' W 123°06'3 2.7
2016-Jul-24 06:33N 49°19' W 123°09'0 0.1
2016-Jul-24 05:34N 49°19' W 123°09'2 1.7
2016-Jul-24 04:34N 49°18' W 123°06'1 0.6
2016-Jul-24 03:34N 49°18' W 123°07'1 0.7
2016-Jul-24 02:34N 49°19' W 123°08'2 2.2
2016-Jul-24 01:33N 49°17' W 123°06'0 0.0
2016-Jul-24 00:33N 49°17' W 123°06'0 0.0
2016-Jul-23 23:33N 49°17' W 123°06'0 0.0
2016-Jul-23 22:07N 49°17' W 123°06'0 0.1
2016-Jul-23 21:33N 49°17' W 123°06'0 0.0
2016-Jul-23 20:24N 49°17' W 123°06'0 0.0
2016-Jul-23 19:33N 49°17' W 123°06'0 0.0
2016-Jul-23 18:34N 49°17' W 123°06'0 0.0
2016-Jul-23 17:33N 49°17' W 123°06'0 0.0
2016-Jul-23 16:33N 49°17' W 123°06'0 0.0
2016-Jul-23 15:32N 49°17' W 123°06'0 0.0
2016-Jul-23 14:33N 49°17' W 123°06'0 0.0
2016-Jul-23 13:33N 49°17' W 123°06'0 0.0
2016-Jul-23 12:33N 49°17' W 123°06'0 0.0
2016-Jul-23 11:33N 49°17' W 123°06'0 0.0
2016-Jul-23 10:33N 49°17' W 123°06'0 0.0
2016-Jul-23 09:33N 49°17' W 123°06'0 0.0
2016-Jul-23 08:33N 49°17' W 123°06'0 0.0
2016-Jul-23 07:33N 49°17' W 123°06'0 0.0
2016-Jul-23 06:34N 49°17' W 123°06'0 0.0
2016-Jul-23 04:32N 49°17' W 123°06'0 0.0
2016-Jul-23 03:32N 49°17' W 123°06'0 0.0
2016-Jul-23 02:33N 49°17' W 123°06'0 0.0
2016-Jul-23 01:30N 49°17' W 123°06'0 0.0
2016-Jul-23 00:32N 49°17' W 123°06'0 0.0
2016-Jul-22 23:33N 49°17' W 123°06'0 0.0
2016-Jul-22 22:30N 49°17' W 123°06'0 0.0
2016-Jul-22 21:33N 49°17' W 123°06'0 0.0
2016-Jul-22 20:33N 49°17' W 123°06'0 0.0
2016-Jul-22 19:33N 49°17' W 123°06'0 0.0
2016-Jul-22 18:33N 49°17' W 123°06'0 0.0
2016-Jul-22 17:32N 49°17' W 123°06'0 0.0
2016-Jul-22 16:33N 49°17' W 123°06'0 0.0
2016-Jul-22 15:31N 49°17' W 123°06'0 0.0
2016-Jul-22 14:33N 49°17' W 123°06'0 0.0
2016-Jul-22 13:33N 49°17' W 123°06'0 0.0
2016-Jul-22 12:33N 49°17' W 123°06'0 0.0
2016-Jul-22 11:26N 49°17' W 123°06'0 0.0
2016-Jul-22 10:33N 49°17' W 123°06'0 0.0
2016-Jul-22 09:30N 49°17' W 123°06'0 0.0
2016-Jul-22 08:33N 49°17' W 123°06'0 0.0
2016-Jul-22 07:33N 49°17' W 123°06'0 0.0
2016-Jul-22 05:33N 49°17' W 123°06'0 0.0
2016-Jul-22 04:31N 49°17' W 123°06'0 0.0
2016-Jul-22 03:33N 49°17' W 123°06'0 0.0
2016-Jul-22 02:34N 49°17' W 123°06'0 0.0
2016-Jul-22 01:33N 49°17' W 123°06'0 0.0
2016-Jul-22 00:10N 49°17' W 123°06'0 0.1
2016-Jul-21 23:33N 49°17' W 123°06'0 0.0
2016-Jul-21 22:33N 49°17' W 123°06'0 0.0
2016-Jul-21 21:33N 49°17' W 123°06'0 0.1
2016-Jul-21 20:33N 49°17' W 123°06'0 0.1
2016-Jul-21 19:33N 49°17' W 123°06'0 0.1
2016-Jul-21 15:33N 49°17' W 123°06'0 0.0
2016-Jul-21 03:32N 49°17' W 123°06'0 0.0
2016-Jul-21 02:34N 49°17' W 123°06'0 0.0
2016-Jul-21 01:30N 49°17' W 123°06'0 0.0
2016-Jul-21 00:32N 49°17' W 123°06'0 0.0
2016-Jul-20 23:33N 49°17' W 123°06'0 0.0
2016-Jul-20 22:29N 49°17' W 123°06'0 0.0
2016-Jul-20 21:33N 49°17' W 123°06'0 0.0
2016-Jul-20 20:33N 49°17' W 123°06'0 0.4
2016-Jul-20 19:34N 49°17' W 123°07'0 0.0
2016-Jul-20 18:34N 49°17' W 123°07'0 0.4
2016-Jul-20 17:34N 49°17' W 123°06'0 0.0
2016-Jul-20 16:33N 49°17' W 123°06'0 0.0
2016-Jul-20 15:32N 49°17' W 123°06'0 0.0
2016-Jul-20 14:34N 49°17' W 123°06'0 0.0
2016-Jul-20 13:33N 49°17' W 123°06'0 0.0
2016-Jul-20 12:32N 49°17' W 123°06'0 0.0
2016-Jul-20 11:34N 49°17' W 123°06'0 0.0
2016-Jul-20 10:33N 49°17' W 123°06'0 0.0
2016-Jul-20 09:31N 49°17' W 123°06'0 0.0
2016-Jul-20 08:34N 49°17' W 123°06'0 0.0
2016-Jul-20 07:33N 49°17' W 123°06'0 0.0
2016-Jul-20 06:34N 49°17' W 123°06'0 0.0
2016-Jul-20 05:34N 49°17' W 123°06'0 0.0
2016-Jul-20 04:30N 49°17' W 123°06'0 0.0
2016-Jul-20 03:34N 49°17' W 123°06'0 0.0
2016-Jul-20 02:34N 49°17' W 123°06'0 0.0
2016-Jul-20 01:33N 49°17' W 123°06'0 0.0
2016-Jul-20 00:14N 49°17' W 123°06'0 0.0
2016-Jul-19 23:34N 49°17' W 123°06'0 0.0
2016-Jul-19 22:32N 49°17' W 123°06'0 0.4
2016-Jul-19 21:34N 49°17' W 123°07'6 5.8
2016-Jul-19 20:34N 49°18' W 122°58'5 5.4
2016-Jul-19 19:33N 49°17' W 123°06'2 1.9
2016-Jul-19 18:33N 49°18' W 123°04'2 1.8
2016-Jul-19 17:33N 49°17' W 123°06'0 0.3
2016-Jul-19 16:32N 49°17' W 123°06'0 0.0
2016-Jul-19 15:33N 49°17' W 123°06'0 0.0
2016-Jul-19 14:33N 49°17' W 123°06'0 0.0
2016-Jul-19 13:33N 49°17' W 123°06'0 0.0
2016-Jul-19 12:30N 49°17' W 123°06'0 0.0
2016-Jul-19 11:33N 49°17' W 123°06'0 0.0
2016-Jul-19 10:33N 49°17' W 123°06'0 0.0
2016-Jul-19 09:31N 49°17' W 123°06'0 0.0
2016-Jul-19 08:32N 49°17' W 123°06'0 0.0
2016-Jul-19 07:33N 49°17' W 123°06'0 0.0
2016-Jul-19 04:33N 49°17' W 123°06'0 0.0
2016-Jul-19 03:33N 49°17' W 123°06'0 0.0
2016-Jul-19 02:33N 49°17' W 123°06'0 0.0
2016-Jul-19 01:33N 49°17' W 123°06'0 0.0
2016-Jul-19 00:23N 49°17' W 123°06'0 0.0
2016-Jul-18 23:33N 49°17' W 123°06'0 0.0
2016-Jul-18 22:33N 49°17' W 123°06'0 0.0
2016-Jul-18 21:33N 49°17' W 123°06'0 0.0
2016-Jul-18 20:32N 49°17' W 123°06'0 0.0
2016-Jul-18 19:33N 49°17' W 123°06'0 0.0
2016-Jul-18 18:33N 49°17' W 123°06'0 0.0
2016-Jul-18 17:33N 49°17' W 123°06'0 0.0
2016-Jul-18 16:31N 49°17' W 123°06'0 0.0
2016-Jul-18 15:33N 49°17' W 123°06'0 0.0
2016-Jul-18 14:33N 49°17' W 123°06'0 0.0
2016-Jul-18 13:33N 49°17' W 123°06'0 0.0
2016-Jul-18 12:33N 49°17' W 123°06'0 0.0
2016-Jul-18 11:33N 49°17' W 123°06'0 0.0
2016-Jul-18 10:33N 49°17' W 123°06'0 0.0
2016-Jul-18 09:33N 49°17' W 123°06'0 0.0
2016-Jul-18 08:33N 49°17' W 123°06'0 0.0
2016-Jul-18 07:33N 49°17' W 123°06'0 0.0
2016-Jul-18 06:33N 49°17' W 123°06'0 0.0
2016-Jul-18 05:33N 49°17' W 123°06'0 0.0
2016-Jul-18 04:31N 49°17' W 123°06'0 0.0
2016-Jul-18 03:33N 49°17' W 123°06'0 0.0
2016-Jul-18 02:33N 49°17' W 123°06'0 0.0
2016-Jul-18 01:33N 49°17' W 123°06'0 0.0
2016-Jul-18 00:32N 49°17' W 123°06'0 0.0
2016-Jul-17 23:33N 49°17' W 123°06'0 0.0
2016-Jul-17 22:32N 49°17' W 123°06'0 0.0
2016-Jul-17 21:33N 49°17' W 123°06'0 0.0
2016-Jul-17 20:31N 49°17' W 123°06'0 0.0
2016-Jul-17 19:31N 49°17' W 123°06'0 0.0
2016-Jul-17 18:33N 49°17' W 123°06'0 0.0
2016-Jul-17 17:33N 49°17' W 123°06'0 0.0
2016-Jul-17 16:32N 49°17' W 123°06'0 0.0
2016-Jul-17 15:33N 49°17' W 123°06'0 0.0
2016-Jul-17 14:33N 49°17' W 123°06'0 0.0
2016-Jul-17 13:32N 49°17' W 123°06'0 0.0
2016-Jul-17 12:31N 49°17' W 123°06'0 0.0
2016-Jul-17 11:33N 49°17' W 123°06'0 0.0
2016-Jul-17 10:33N 49°17' W 123°06'0 0.0
2016-Jul-17 09:33N 49°17' W 123°06'0 0.0
2016-Jul-17 08:33N 49°17' W 123°06'0 0.0
2016-Jul-17 07:33N 49°17' W 123°06'0 0.0
2016-Jul-17 06:33N 49°17' W 123°06'0 0.0
2016-Jul-17 04:33N 49°17' W 123°06'0 0.0
2016-Jul-17 03:33N 49°17' W 123°06'0 0.0
2016-Jul-17 02:33N 49°17' W 123°06'0 0.0
2016-Jul-17 01:32N 49°17' W 123°06'0 0.0
2016-Jul-17 00:30N 49°17' W 123°06'0 0.0
2016-Jul-16 23:33N 49°17' W 123°06'0 0.0
2016-Jul-16 22:33N 49°17' W 123°06'0 0.0
2016-Jul-16 21:18N 49°17' W 123°06'0 0.0
2016-Jul-16 20:33N 49°17' W 123°06'0 0.0
2016-Jul-16 19:33N 49°17' W 123°06'0 0.0
2016-Jul-16 18:33N 49°17' W 123°06'0 0.0
2016-Jul-16 17:33N 49°17' W 123°06'0 0.0
2016-Jul-16 16:33N 49°17' W 123°06'0 0.0
2016-Jul-16 15:33N 49°17' W 123°06'0 0.0
2016-Jul-16 14:33N 49°17' W 123°06'0 0.0
2016-Jul-16 13:32N 49°17' W 123°06'0 0.0
2016-Jul-16 12:27N 49°17' W 123°06'0 0.0
2016-Jul-16 11:33N 49°17' W 123°06'0 0.0
2016-Jul-16 10:33N 49°17' W 123°06'0 0.0
2016-Jul-16 09:29N 49°17' W 123°06'0 0.0
2016-Jul-16 08:33N 49°17' W 123°06'0 0.0
2016-Jul-16 07:33N 49°17' W 123°06'0 0.0
2016-Jul-16 06:33N 49°17' W 123°06'0 0.0
2016-Jul-16 04:33N 49°17' W 123°06'0 0.0
2016-Jul-16 03:33N 49°17' W 123°06'0 0.0
2016-Jul-16 02:33N 49°17' W 123°06'0 0.0
2016-Jul-16 01:32N 49°17' W 123°06'0 0.0
2016-Jul-16 00:29N 49°17' W 123°06'0 0.0
2016-Jul-15 23:33N 49°17' W 123°06'0 0.0
2016-Jul-15 22:33N 49°17' W 123°06'0 0.0
2016-Jul-15 21:30N 49°17' W 123°06'0 0.0
2016-Jul-15 20:32N 49°17' W 123°06'0 0.0
2016-Jul-15 19:33N 49°17' W 123°06'0 0.0
2016-Jul-15 18:33N 49°17' W 123°06'  

Dump ship's entire track history